createdAt,value
2024-04-18T00:00:46.824Z,1.0462
2024-04-18T00:01:48.270Z,1.0231
2024-04-18T00:02:49.812Z,1.0154
2024-04-18T00:03:51.496Z,1.1077
2024-04-18T00:04:52.934Z,1.0769
2024-04-18T00:05:54.422Z,1.0000
2024-04-18T00:06:55.942Z,1.0692
2024-04-18T00:07:57.473Z,1.0769
2024-04-18T00:08:59.021Z,1.0846
2024-04-18T00:10:00.630Z,1.0769
2024-04-18T00:11:02.154Z,1.0692
2024-04-18T00:12:03.710Z,0.9385
2024-04-18T00:13:05.166Z,1.0385
2024-04-18T00:14:06.790Z,1.0385
2024-04-18T00:15:08.265Z,1.0923
2024-04-18T00:16:09.760Z,1.0538
2024-04-18T00:17:11.432Z,1.0769
2024-04-18T00:18:12.897Z,1.0231
2024-04-18T00:19:14.373Z,1.1231
2024-04-18T00:20:15.880Z,0.9692
2024-04-18T00:21:17.466Z,0.9846
2024-04-18T00:22:18.969Z,1.0385
2024-04-18T00:23:21.408Z,1.0692
2024-04-18T00:24:22.111Z,1.0250
2024-04-18T00:25:23.600Z,1.0615
2024-04-18T00:26:25.142Z,1.0154
2024-04-18T00:27:26.692Z,1.1077
2024-04-18T00:28:28.216Z,1.0385
2024-04-18T00:29:29.725Z,1.0385
2024-04-18T00:30:31.949Z,0.9846
2024-04-18T00:31:32.812Z,1.0333
2024-04-18T00:32:34.377Z,0.9692
2024-04-18T00:33:35.861Z,1.0923
2024-04-18T00:34:37.416Z,1.0923
2024-04-18T00:35:38.909Z,1.0538
2024-04-18T00:36:40.514Z,1.0462
2024-04-18T00:37:41.980Z,1.1308
2024-04-18T00:38:43.590Z,1.0462
2024-04-18T00:39:45.110Z,1.0385
2024-04-18T00:40:46.599Z,1.0385
2024-04-18T00:41:48.112Z,1.1231
2024-04-18T00:42:49.741Z,0.9308
2024-04-18T00:43:51.231Z,0.9154
2024-04-18T00:44:52.721Z,1.0923
2024-04-18T00:45:54.349Z,1.0692
2024-04-18T00:46:55.780Z,1.0769
2024-04-18T00:47:57.400Z,0.9769
2024-04-18T00:48:59.031Z,1.0923
2024-04-18T00:50:00.406Z,1.0154
2024-04-18T00:51:01.938Z,1.1000
2024-04-18T00:52:03.439Z,1.0692
2024-04-18T00:53:05.005Z,0.9615
2024-04-18T00:54:06.503Z,1.0462
2024-04-18T00:55:08.068Z,1.0538
2024-04-18T00:56:09.724Z,1.0923
2024-04-18T00:57:11.141Z,1.0462
2024-04-18T00:58:12.731Z,1.0538
2024-04-18T00:59:14.181Z,1.0077
2024-04-18T01:00:15.794Z,1.0000
2024-04-18T01:01:17.350Z,1.0308
2024-04-18T01:02:18.870Z,1.0077
2024-04-18T01:03:20.427Z,1.0385
2024-04-18T01:04:22.033Z,1.0615
2024-04-18T01:05:23.367Z,0.9923
2024-04-18T01:06:25.005Z,1.0462
2024-04-18T01:07:26.454Z,1.1077
2024-04-18T01:08:28.049Z,1.0615
2024-04-18T01:09:29.577Z,1.0615
2024-04-18T01:10:31.044Z,1.0385
2024-04-18T01:11:32.693Z,1.0154
2024-04-18T01:12:34.190Z,1.0615
2024-04-18T01:13:35.780Z,0.9846
2024-04-18T01:14:37.225Z,1.0692
2024-04-18T01:15:39.997Z,1.0462
2024-04-18T01:16:40.314Z,1.0000
2024-04-18T01:17:41.911Z,0.9538
2024-04-18T01:18:43.479Z,0.9385
2024-04-18T01:19:44.880Z,0.9692
2024-04-18T01:20:46.424Z,1.0385
2024-04-18T01:21:48.023Z,1.1154
2024-04-18T01:22:49.502Z,1.0000
2024-04-18T01:23:51.040Z,0.9692
2024-04-18T01:24:52.618Z,1.0462
2024-04-18T01:25:54.934Z,1.0308
2024-04-18T01:26:56.479Z,0.9538
2024-04-18T01:27:57.146Z,1.0417
2024-04-18T01:28:58.676Z,1.0538
2024-04-18T01:30:00.384Z,1.0385
2024-04-18T01:31:01.745Z,1.1077
2024-04-18T01:32:03.294Z,1.0538
2024-04-18T01:33:04.878Z,1.0308
2024-04-18T01:34:06.426Z,1.0462
2024-04-18T01:35:07.898Z,1.0615
2024-04-18T01:36:09.431Z,1.1077
2024-04-18T01:37:11.114Z,0.9769
2024-04-18T01:38:12.515Z,1.0000
2024-04-18T01:39:14.053Z,1.0308
2024-04-18T01:40:15.667Z,1.0154
2024-04-18T01:41:17.105Z,1.0231
2024-04-18T01:42:18.715Z,0.9615
2024-04-18T01:43:20.287Z,1.0231
2024-04-18T01:44:21.711Z,1.0231
2024-04-18T01:45:23.242Z,1.0462
2024-04-18T01:46:25.373Z,1.0385
2024-04-18T01:47:26.374Z,1.0769
2024-04-18T01:48:27.952Z,0.9846
2024-04-18T01:49:29.357Z,1.0615
2024-04-18T01:50:30.942Z,1.0462
2024-04-18T01:51:32.475Z,1.0231
2024-04-18T01:52:33.989Z,1.0154
2024-04-18T01:53:35.543Z,0.9923
2024-04-18T01:54:37.175Z,1.0462
2024-04-18T01:55:38.589Z,1.0154
2024-04-18T01:56:40.147Z,1.1000
2024-04-18T01:57:41.896Z,1.0231
2024-04-18T01:58:43.202Z,1.0462
2024-04-18T01:59:44.779Z,1.0154
2024-04-18T02:00:47.111Z,0.9692
2024-04-18T02:01:47.796Z,0.9917
2024-04-18T02:02:49.404Z,0.9769
2024-04-18T02:03:50.965Z,1.0385
2024-04-18T02:04:52.441Z,0.9692
2024-04-18T02:05:53.960Z,0.9692
2024-04-18T02:06:55.496Z,0.9846
2024-04-18T02:07:56.982Z,0.9769
2024-04-18T02:08:58.521Z,0.9077
2024-04-18T02:10:00.064Z,1.0538
2024-04-18T02:11:01.658Z,1.0462
2024-04-18T02:12:03.177Z,1.0462
2024-04-18T02:13:04.694Z,0.9923
2024-04-18T02:14:06.192Z,1.0077
2024-04-18T02:15:07.722Z,0.9846
2024-04-18T02:16:09.247Z,1.0231
2024-04-18T02:17:10.803Z,0.9615
2024-04-18T02:18:12.531Z,1.0077
2024-04-18T02:19:13.874Z,0.9692
2024-04-18T02:20:15.394Z,0.8615
2024-04-18T02:21:16.933Z,0.9846
2024-04-18T02:22:18.439Z,0.9231
2024-04-18T02:23:19.963Z,1.0154
2024-04-18T02:24:21.535Z,0.8923
2024-04-18T02:25:23.090Z,1.0385
2024-04-18T02:26:24.603Z,0.9923
2024-04-18T02:27:26.158Z,1.0000
2024-04-18T02:28:27.630Z,1.0308
2024-04-18T02:29:29.187Z,0.9692
2024-04-18T02:30:30.763Z,0.9923
2024-04-18T02:31:32.215Z,1.0154
2024-04-18T02:32:34.538Z,0.9692
2024-04-18T02:33:36.553Z,0.9167
2024-04-18T02:34:36.874Z,0.9250
2024-04-18T02:35:38.388Z,0.9385
2024-04-18T02:36:39.907Z,0.9538
2024-04-18T02:37:42.008Z,0.9923
2024-04-18T02:38:42.949Z,0.9769
2024-04-18T02:39:44.584Z,0.9538
2024-04-18T02:40:46.128Z,1.0462
2024-04-18T02:41:47.681Z,0.9923
2024-04-18T02:42:49.158Z,0.9308
2024-04-18T02:43:50.653Z,0.9615
2024-04-18T02:44:52.177Z,1.0308
2024-04-18T02:45:54.585Z,0.9385
2024-04-18T02:46:55.242Z,0.9000
2024-04-18T02:47:56.780Z,0.9615
2024-04-18T02:48:58.419Z,0.9692
2024-04-18T02:49:59.931Z,0.9923
2024-04-18T02:51:01.322Z,0.9615
2024-04-18T02:52:02.879Z,0.9231
2024-04-18T02:53:04.399Z,0.9538
2024-04-18T02:54:05.938Z,0.9462
2024-04-18T02:55:07.455Z,0.8923
2024-04-18T02:56:09.037Z,0.9923
2024-04-18T02:57:10.506Z,0.9769
2024-04-18T02:58:12.722Z,0.9077
2024-04-18T02:59:13.622Z,1.0308
2024-04-18T03:00:15.182Z,0.9923
2024-04-18T03:01:16.714Z,0.9154
2024-04-18T03:02:18.250Z,0.9462
2024-04-18T03:03:21.034Z,0.9462
2024-04-18T03:04:21.270Z,0.9917
2024-04-18T03:05:22.771Z,0.8846
2024-04-18T03:06:24.316Z,0.8769
2024-04-18T03:07:25.880Z,0.9385
2024-04-18T03:08:27.363Z,0.8846
2024-04-18T03:09:28.903Z,0.9077
2024-04-18T03:10:30.440Z,0.8846
2024-04-18T03:11:32.500Z,0.9769
2024-04-18T03:12:33.559Z,0.9462
2024-04-18T03:13:35.017Z,0.9846
2024-04-18T03:14:36.548Z,1.0154
2024-04-18T03:15:38.099Z,0.9538
2024-04-18T03:16:39.620Z,0.9538
2024-04-18T03:17:41.184Z,0.9538
2024-04-18T03:18:42.816Z,0.9615
2024-04-18T03:19:44.980Z,0.8923
2024-04-18T03:20:46.476Z,0.9500
2024-04-18T03:21:47.526Z,0.9333
2024-04-18T03:22:48.944Z,0.9308
2024-04-18T03:23:50.349Z,0.9154
2024-04-18T03:24:52.092Z,0.9154
2024-04-18T03:25:53.388Z,0.8308
2024-04-18T03:26:55.497Z,0.9154
2024-04-18T03:27:56.482Z,0.9077
2024-04-18T03:28:57.986Z,0.9154
2024-04-18T03:29:59.673Z,0.9462
2024-04-18T03:31:01.038Z,0.9231
2024-04-18T03:32:02.611Z,0.8769
2024-04-18T03:33:05.083Z,0.8923
2024-04-18T03:34:05.671Z,0.8417
2024-04-18T03:35:07.169Z,0.9462
2024-04-18T03:36:08.766Z,1.0231
2024-04-18T03:37:10.237Z,0.9769
2024-04-18T03:38:11.770Z,1.0077
2024-04-18T03:39:13.361Z,0.8846
2024-04-18T03:40:15.619Z,0.9769
2024-04-18T03:41:16.397Z,0.9833
2024-04-18T03:42:17.904Z,0.9000
2024-04-18T03:43:19.429Z,0.9538
2024-04-18T03:44:20.946Z,0.8769
2024-04-18T03:45:22.596Z,0.9385
2024-04-18T03:46:24.092Z,0.8923
2024-04-18T03:47:25.649Z,0.8769
2024-04-18T03:48:27.179Z,0.9462
2024-04-18T03:49:29.517Z,1.0538
2024-04-18T03:50:30.149Z,0.9333
2024-04-18T03:51:31.808Z,0.9231
2024-04-18T03:52:33.236Z,0.8769
2024-04-18T03:53:34.773Z,0.9846
2024-04-18T03:54:51.388Z,0.9385
2024-04-18T03:55:37.873Z,0.8500
2024-04-18T03:56:39.415Z,0.9154
2024-04-18T03:57:41.573Z,0.9846
2024-04-18T03:58:42.474Z,1.0000
2024-04-18T03:59:44.510Z,0.9462
2024-04-18T04:00:46.571Z,0.8692
2024-04-18T04:01:48.106Z,0.9750
2024-04-18T04:02:48.616Z,0.8077
2024-04-18T04:03:51.047Z,0.8692
2024-04-18T04:04:52.529Z,0.9500
2024-04-18T04:05:53.254Z,0.8750
2024-04-18T04:06:54.784Z,0.9692
2024-04-18T04:07:56.251Z,0.8923
2024-04-18T04:08:58.529Z,0.8462
2024-04-18T04:09:59.315Z,0.9667
2024-04-18T04:11:01.601Z,0.9154
2024-04-18T04:12:02.403Z,0.9500
2024-04-18T04:13:03.902Z,0.8538
2024-04-18T04:14:05.996Z,0.9231
2024-04-18T04:15:06.988Z,0.9231
2024-04-18T04:16:08.502Z,0.8308
2024-04-18T04:17:10.102Z,0.9000
2024-04-18T04:18:12.639Z,0.8615
2024-04-18T04:19:13.153Z,0.8750
2024-04-18T04:20:16.055Z,0.9846
2024-04-18T04:21:16.334Z,0.9167
2024-04-18T04:22:18.492Z,0.9231
2024-04-18T04:23:19.233Z,0.9500
2024-04-18T04:24:20.769Z,0.9385
2024-04-18T04:25:22.306Z,0.9077
2024-04-18T04:26:23.799Z,0.8385
2024-04-18T04:27:25.375Z,0.8692
2024-04-18T04:28:26.879Z,0.9462
2024-04-18T04:29:28.491Z,0.9077
2024-04-18T04:30:29.956Z,0.8615
2024-04-18T04:31:31.480Z,0.9615
2024-04-18T04:32:33.091Z,0.8923
2024-04-18T04:33:34.576Z,0.8308
2024-04-18T04:34:36.041Z,0.8846
2024-04-18T04:35:39.573Z,0.8462
2024-04-18T04:36:39.177Z,0.8917
2024-04-18T04:37:40.734Z,0.8615
2024-04-18T04:38:42.175Z,0.9615
2024-04-18T04:39:43.768Z,0.9538
2024-04-18T04:40:45.281Z,0.9231
2024-04-18T04:41:46.759Z,0.8308
2024-04-18T04:42:49.129Z,0.9167
2024-04-18T04:43:49.844Z,0.9667
2024-04-18T04:44:51.400Z,0.8769
2024-04-18T04:45:52.993Z,0.8923
2024-04-18T04:46:54.991Z,0.9154
2024-04-18T04:47:56.563Z,0.9538
2024-04-18T04:48:57.546Z,0.8462
2024-04-18T04:49:59.160Z,0.8769
2024-04-18T04:51:00.600Z,0.8923
2024-04-18T04:52:02.123Z,0.9154
2024-04-18T04:53:03.671Z,0.9154
2024-04-18T04:54:05.181Z,0.9308
2024-04-18T04:55:06.694Z,0.9385
2024-04-18T04:56:08.302Z,0.8385
2024-04-18T04:57:09.783Z,0.8846
2024-04-18T04:58:11.304Z,0.9077
2024-04-18T04:59:12.860Z,0.9385
2024-04-18T05:00:14.406Z,0.9692
2024-04-18T05:01:15.918Z,0.9154
2024-04-18T05:02:17.510Z,0.9077
2024-04-18T05:03:18.987Z,0.9308
2024-04-18T05:04:20.581Z,0.9154
2024-04-18T05:05:22.010Z,0.9692
2024-04-18T05:06:23.656Z,0.8846
2024-04-18T05:07:25.091Z,0.9385
2024-04-18T05:08:26.648Z,0.9538
2024-04-18T05:09:28.191Z,0.9615
2024-04-18T05:10:30.524Z,0.8462
2024-04-18T05:11:31.261Z,0.8250
2024-04-18T05:12:32.850Z,0.9231
2024-04-18T05:13:34.301Z,0.9000
2024-04-18T05:14:35.857Z,0.8923
2024-04-18T05:15:37.420Z,0.8923
2024-04-18T05:16:39.559Z,0.8769
2024-04-18T05:17:40.467Z,0.9154
2024-04-18T05:18:41.983Z,0.8615
2024-04-18T05:19:43.466Z,0.8692
2024-04-18T05:20:44.999Z,0.8923
2024-04-18T05:21:47.173Z,0.9077
2024-04-18T05:22:48.089Z,0.8692
2024-04-18T05:23:49.666Z,0.9000
2024-04-18T05:24:51.277Z,0.8462
2024-04-18T05:25:52.645Z,0.8615
2024-04-18T05:26:54.182Z,0.8923
2024-04-18T05:27:55.774Z,0.8462
2024-04-18T05:28:57.303Z,0.9615
2024-04-18T05:29:58.777Z,0.8692
2024-04-18T05:31:00.436Z,0.9154
2024-04-18T05:32:01.890Z,0.8462
2024-04-18T05:33:03.496Z,0.8615
2024-04-18T05:34:04.970Z,0.8615
2024-04-18T05:35:06.465Z,0.8385
2024-04-18T05:36:07.998Z,0.8077
2024-04-18T05:37:12.669Z,0.8000
2024-04-18T05:38:11.039Z,0.8692
2024-04-18T05:39:13.586Z,0.9154
2024-04-18T05:40:14.131Z,0.8538
2024-04-18T05:41:15.663Z,0.9385
2024-04-18T05:42:17.190Z,0.8846
2024-04-18T05:43:19.589Z,0.8846
2024-04-18T05:44:20.291Z,0.9250
2024-04-18T05:45:21.850Z,0.9000
2024-04-18T05:46:24.129Z,0.9077
2024-04-18T05:47:24.914Z,0.7833
2024-04-18T05:48:27.028Z,0.8462
2024-04-18T05:49:29.548Z,0.9231
2024-04-18T05:50:30.555Z,0.9500
2024-04-18T05:51:33.670Z,0.8333
2024-04-18T05:52:32.718Z,0.8250
2024-04-18T05:53:34.069Z,0.9000
2024-04-18T05:54:36.586Z,0.9769
2024-04-18T05:55:38.062Z,0.9083
2024-04-18T05:56:38.671Z,0.8000
2024-04-18T05:57:41.159Z,0.8769
2024-04-18T05:58:42.610Z,0.8667
2024-04-18T05:59:45.070Z,0.8583
2024-04-18T06:00:45.646Z,0.9167
2024-04-18T06:01:46.371Z,0.9083
2024-04-18T06:02:47.901Z,0.8154
2024-04-18T06:03:49.629Z,0.8462
2024-04-18T06:04:51.011Z,0.8692
2024-04-18T06:05:54.555Z,0.9538
2024-04-18T06:06:54.598Z,0.8667
2024-04-18T06:07:55.741Z,0.8615
2024-04-18T06:08:57.051Z,0.8538
2024-04-18T06:09:58.607Z,0.9000
2024-04-18T06:11:02.541Z,0.9308
2024-04-18T06:12:02.765Z,0.8917
2024-04-18T06:13:04.109Z,0.9250
2024-04-18T06:14:07.079Z,0.8333
2024-04-18T06:15:08.085Z,0.8583
2024-04-18T06:16:07.883Z,0.7750
2024-04-18T06:17:10.599Z,0.8769
2024-04-18T06:18:12.725Z,0.8000
2024-04-18T06:19:13.590Z,0.8000
2024-04-18T06:20:15.037Z,0.8500
2024-04-18T06:21:15.486Z,0.9417
2024-04-18T06:22:17.019Z,0.8462
2024-04-18T06:23:18.708Z,0.9538
2024-04-18T06:24:23.131Z,0.8308
2024-04-18T06:25:22.637Z,0.9538
2024-04-18T06:26:23.142Z,0.8667
2024-04-18T06:27:24.822Z,0.7769
2024-04-18T06:28:28.091Z,0.8923
2024-04-18T06:29:27.695Z,0.8583
2024-04-18T06:30:30.657Z,0.7692
2024-04-18T06:31:30.740Z,0.8417
2024-04-18T06:32:33.614Z,0.8615
2024-04-18T06:33:34.852Z,0.8500
2024-04-18T06:34:36.211Z,0.8167
2024-04-18T06:35:38.633Z,0.8917
2024-04-18T06:36:39.196Z,0.9000
2024-04-18T06:37:52.128Z,0.8667
2024-04-18T06:38:48.628Z,0.9200
2024-04-18T06:39:45.663Z,0.8727
2024-04-18T06:40:46.606Z,0.7750
2024-04-18T06:41:50.100Z,0.8750
2024-04-18T06:42:48.632Z,0.9000
2024-04-18T06:43:50.089Z,0.8385
2024-04-18T06:44:50.724Z,0.9000
2024-04-18T06:45:54.233Z,0.9154
2024-04-18T06:47:00.501Z,0.8167
2024-04-18T06:49:32.211Z,0.8000
2024-04-18T06:50:32.294Z,0.8583
2024-04-18T06:51:35.249Z,0.8583
2024-04-18T06:52:40.169Z,0.8385
2024-04-18T06:53:37.177Z,0.8455
2024-04-18T06:54:41.244Z,0.8750
2024-04-18T06:55:41.257Z,0.8923
2024-04-18T06:56:53.619Z,0.8167
2024-04-18T06:57:45.768Z,0.8300
2024-04-18T06:58:47.150Z,0.8167
2024-04-18T06:59:48.692Z,0.8917
2024-04-18T07:00:48.946Z,0.8667
2024-04-18T07:01:49.585Z,0.8333
2024-04-18T07:02:51.203Z,0.8500
2024-04-18T07:03:52.249Z,0.8000
2024-04-18T07:04:53.149Z,0.9167
2024-04-18T07:05:56.197Z,0.8077
2024-04-18T07:06:57.632Z,0.8417
2024-04-18T07:08:00.657Z,0.8231
2024-04-18T07:09:15.168Z,0.8250
2024-04-18T07:10:00.879Z,0.8400
2024-04-18T07:11:04.726Z,0.8846
2024-04-18T07:12:03.752Z,0.8667
2024-04-18T07:13:07.135Z,0.8692
2024-04-18T07:14:12.627Z,0.8250
2024-04-18T07:15:09.115Z,0.8182
2024-04-18T07:16:10.644Z,0.8417
2024-04-18T07:17:12.665Z,0.8250
2024-04-18T07:18:16.266Z,0.7615
2024-04-18T07:19:16.236Z,0.8500
2024-04-18T07:20:26.668Z,0.8500
2024-04-18T07:21:22.188Z,0.8727
2024-04-18T07:22:19.099Z,0.7923
2024-04-18T07:23:24.175Z,0.8462
2024-04-18T07:24:28.664Z,0.7917
2024-04-18T07:25:30.650Z,0.8091
2024-04-18T07:26:28.604Z,0.8000
2024-04-18T07:27:29.654Z,0.8750
2024-04-18T07:28:30.264Z,0.8583
2024-04-18T07:29:36.139Z,0.8250
2024-04-18T07:30:32.722Z,0.8000
2024-04-18T07:31:35.163Z,0.8333
2024-04-18T07:32:41.709Z,0.8333
2024-04-18T07:33:41.292Z,0.8833
2024-04-18T07:36:10.426Z,0.9000
2024-04-18T07:37:15.655Z,0.7846
2024-04-18T07:38:19.164Z,0.8667
2024-04-18T07:39:18.195Z,0.8167
2024-04-18T07:40:22.710Z,0.8333
2024-04-18T07:41:24.174Z,0.8417
2024-04-18T07:42:24.719Z,0.8769
2024-04-18T07:43:48.656Z,0.7917
2024-04-18T07:44:25.353Z,0.8714
2024-04-18T07:45:31.653Z,0.8417
2024-04-18T07:46:28.157Z,0.8818
2024-04-18T07:47:32.176Z,0.8500
2024-04-18T07:48:31.807Z,0.9583
2024-04-18T07:49:32.777Z,0.8833
2024-04-18T07:52:15.921Z,0.9000
2024-04-18T07:53:10.372Z,0.8545
2024-04-18T07:54:15.146Z,0.8583
2024-04-18T07:55:13.731Z,0.8583
2024-04-18T07:56:12.950Z,0.8182
2024-04-18T07:57:11.350Z,0.8000
2024-04-18T07:58:17.636Z,0.8462
2024-04-18T07:59:16.966Z,0.8417
2024-04-18T08:00:18.161Z,0.8417
2024-04-18T08:01:22.038Z,0.8083
2024-04-18T08:02:20.841Z,0.9000
2024-04-18T08:03:34.726Z,0.8923
2024-04-18T08:04:44.573Z,0.8700
2024-04-18T08:05:27.231Z,0.7750
2024-04-18T08:06:28.769Z,0.8417
2024-04-18T08:07:32.680Z,0.8636
2024-04-18T08:08:33.075Z,0.9250
2024-04-18T08:09:34.165Z,0.8500
2024-04-18T08:10:52.329Z,0.7917
2024-04-18T08:12:37.832Z,0.8182
2024-04-18T08:13:44.897Z,0.9000
2024-04-18T08:14:40.971Z,0.7833
2024-04-18T08:16:42.244Z,0.7833
2024-04-18T08:17:45.255Z,0.8083
2024-04-18T08:18:44.174Z,0.8667
2024-04-18T08:19:50.593Z,0.8667
2024-04-18T08:20:46.476Z,0.8455
2024-04-18T08:23:25.624Z,0.9000
2024-04-18T08:24:37.231Z,0.8917
2024-04-18T08:25:29.752Z,0.8818
2024-04-18T08:26:29.155Z,0.8333
2024-04-18T08:27:30.288Z,0.9167
2024-04-18T08:28:32.075Z,0.8417
2024-04-18T08:29:35.618Z,0.8333
2024-04-18T08:30:34.668Z,0.8615
2024-04-18T08:31:36.193Z,0.8538
2024-04-18T08:32:44.229Z,0.7583
2024-04-18T08:33:46.642Z,0.8364
2024-04-18T08:34:43.796Z,0.8083
2024-04-18T08:35:42.137Z,0.7500
2024-04-18T08:36:51.653Z,0.7833
2024-04-18T08:39:16.979Z,0.8000
2024-04-18T08:40:23.637Z,0.8462
2024-04-18T08:41:24.211Z,0.8167
2024-04-18T08:42:24.777Z,0.9000
2024-04-18T08:43:28.088Z,0.8692
2024-04-18T08:44:36.642Z,0.8500
2024-04-18T08:45:30.610Z,0.8300
2024-04-18T08:46:31.175Z,0.8923
2024-04-18T08:47:35.060Z,0.9077
2024-04-18T08:48:37.344Z,0.8083
2024-04-18T08:49:35.650Z,0.8846
2024-04-18T08:50:40.104Z,0.8417
2024-04-18T08:51:37.236Z,0.8083
2024-04-18T08:52:39.026Z,0.8500
2024-04-18T08:53:40.248Z,0.8692
2024-04-18T08:54:44.734Z,0.8231
2024-04-18T08:55:45.122Z,0.8250
2024-04-18T08:56:51.172Z,0.8250
2024-04-18T08:57:48.138Z,0.8636
2024-04-18T08:58:49.677Z,0.8083
2024-04-18T08:59:50.698Z,0.8000
2024-04-18T09:00:53.619Z,0.7846
2024-04-18T09:01:52.497Z,0.7833
2024-04-18T09:02:59.162Z,0.8000
2024-04-18T09:03:57.190Z,0.8667
2024-04-18T09:05:00.210Z,0.8083
2024-04-18T09:06:01.180Z,0.7917
2024-04-18T09:07:07.224Z,0.8333
2024-04-18T09:08:06.653Z,0.8750
2024-04-18T09:09:04.217Z,0.7750
2024-04-18T09:10:08.664Z,0.7667
2024-04-18T09:11:07.185Z,0.8000
2024-04-18T09:12:11.720Z,0.7231
2024-04-18T09:13:18.120Z,0.8833
2024-04-18T09:14:14.633Z,0.8417
2024-04-18T09:15:12.488Z,0.8000
2024-04-18T09:16:15.189Z,0.8692
2024-04-18T09:17:18.191Z,0.8077
2024-04-18T09:18:17.159Z,0.7917
2024-04-18T09:19:19.768Z,0.7462
2024-04-18T09:20:29.660Z,0.9000
2024-04-18T09:21:24.730Z,0.8500
2024-04-18T09:22:23.138Z,0.8333
2024-04-18T09:23:25.637Z,0.8231
2024-04-18T09:26:27.268Z,0.9000
2024-04-18T09:27:26.241Z,0.8091
2024-04-18T09:28:23.062Z,0.8000
2024-04-18T09:29:35.755Z,0.7538
2024-04-18T09:30:28.746Z,0.8455
2024-04-18T09:31:38.327Z,0.8000
2024-04-18T09:32:28.972Z,0.8818
2024-04-18T09:33:32.235Z,0.7692
2024-04-18T09:34:32.095Z,0.7917
2024-04-18T09:35:34.646Z,0.8538
2024-04-18T09:36:35.269Z,0.8750
2024-04-18T09:37:38.646Z,0.8000
2024-04-18T09:38:39.692Z,0.7167
2024-04-18T09:39:39.774Z,0.7583
2024-04-18T09:40:41.256Z,0.7615
2024-04-18T09:41:43.636Z,0.7308
2024-04-18T09:42:48.185Z,0.8462
2024-04-18T09:43:46.678Z,0.8417
2024-04-18T09:44:47.419Z,0.8000
2024-04-18T09:45:53.184Z,0.7538
2024-04-18T09:46:50.447Z,0.8000
2024-04-18T09:47:54.665Z,0.8231
2024-04-18T09:48:53.577Z,0.7417
2024-04-18T09:49:55.847Z,0.7846
2024-04-18T09:50:57.143Z,0.8500
2024-04-18T09:52:04.168Z,0.7692
2024-04-18T09:52:59.657Z,0.7909
2024-04-18T09:54:01.270Z,0.8538
2024-04-18T09:55:03.696Z,0.8308
2024-04-18T09:56:07.737Z,0.7500
2024-04-18T09:57:05.794Z,0.8167
2024-04-18T09:58:08.169Z,0.7615
2024-04-18T09:59:08.844Z,0.7833
2024-04-18T10:00:11.697Z,0.7769
2024-04-18T10:01:13.930Z,0.8417
2024-04-18T10:02:13.520Z,0.8385
2024-04-18T10:03:19.256Z,0.7923
2024-04-18T10:04:18.291Z,0.7846
2024-04-18T10:05:20.166Z,0.8500
2024-04-18T10:06:20.229Z,0.7917
2024-04-18T10:07:22.645Z,0.8385
2024-04-18T10:08:25.191Z,0.7583
2024-04-18T10:09:48.730Z,0.8000
2024-04-18T10:10:27.222Z,0.7429
2024-04-18T10:11:28.746Z,0.7333
2024-04-18T10:12:28.849Z,0.7923
2024-04-18T10:13:32.191Z,0.7615
2024-04-18T10:14:34.164Z,0.8538
2024-04-18T10:15:33.432Z,0.8583
2024-04-18T10:16:36.694Z,0.7846
2024-04-18T10:17:45.772Z,0.7417
2024-04-18T10:18:40.216Z,0.7000
2024-04-18T10:19:43.644Z,0.7833
2024-04-18T10:20:41.743Z,0.7083
2024-04-18T10:22:47.909Z,0.7692
2024-04-18T10:23:50.702Z,0.7417
2024-04-18T10:24:53.739Z,0.8462
2024-04-18T10:25:48.715Z,0.7636
2024-04-18T10:26:57.171Z,0.7462
2024-04-18T10:27:52.669Z,0.8364
2024-04-18T10:28:54.706Z,0.7583
2024-04-18T10:29:57.240Z,0.8417
2024-04-18T10:30:56.383Z,0.7667
2024-04-18T10:32:07.232Z,0.7769
2024-04-18T10:33:09.356Z,0.7545
2024-04-18T10:34:06.271Z,0.8455
2024-04-18T10:35:04.166Z,0.8750
2024-04-18T10:36:07.709Z,0.7667
2024-04-18T10:37:22.181Z,0.7417
2024-04-18T10:38:07.735Z,0.7500
2024-04-18T10:39:10.745Z,0.7333
2024-04-18T10:40:12.256Z,0.7385
2024-04-18T10:42:49.227Z,0.7000
2024-04-18T10:43:47.879Z,0.8250
2024-04-18T10:44:50.688Z,0.8538
2024-04-18T10:45:52.241Z,0.7750
2024-04-18T10:46:54.702Z,0.7833
2024-04-18T10:47:54.159Z,0.8333
2024-04-18T10:49:03.547Z,0.8000
2024-04-18T10:49:57.085Z,0.7750
2024-04-18T10:51:03.330Z,0.8385
2024-04-18T10:52:02.737Z,0.7667
2024-04-18T10:53:10.704Z,0.7769
2024-04-18T10:54:03.272Z,0.7818
2024-04-18T10:55:10.680Z,0.8077
2024-04-18T10:56:07.161Z,0.7273
2024-04-18T10:58:42.330Z,1.1000
2024-04-18T11:00:00.439Z,0.8000
2024-04-18T11:00:49.303Z,0.8222
2024-04-18T11:01:51.844Z,0.7833
2024-04-18T11:02:49.772Z,0.8750
2024-04-18T11:03:54.056Z,0.7583
2024-04-18T11:05:22.315Z,0.8833
2024-04-18T11:06:01.348Z,0.8714
2024-04-18T11:07:05.727Z,0.7083
2024-04-18T11:08:05.236Z,0.9182
2024-04-18T11:09:08.253Z,0.8455
2024-04-18T11:10:00.252Z,0.8100
2024-04-18T11:11:16.745Z,0.7417
2024-04-18T11:12:16.715Z,0.8400
2024-04-18T11:14:38.761Z,0.8000
2024-04-18T11:15:44.273Z,0.8462
2024-04-18T11:16:44.171Z,0.9077
2024-04-18T11:17:43.796Z,0.8500
2024-04-18T11:18:53.030Z,0.7538
2024-04-18T11:19:51.244Z,0.8667
2024-04-18T11:20:56.282Z,0.7750
2024-04-18T11:21:54.748Z,0.8091
2024-04-18T11:23:05.771Z,0.8091
2024-04-18T11:23:55.235Z,0.7455
2024-04-18T11:24:57.249Z,0.7923
2024-04-18T11:25:58.744Z,0.9250
2024-04-18T11:26:57.793Z,0.8250
2024-04-18T11:28:07.279Z,0.8615
2024-04-18T11:29:00.780Z,0.8364
2024-04-18T11:30:15.801Z,0.8667
2024-04-18T11:31:10.280Z,0.8545
2024-04-18T11:32:14.768Z,0.7917
2024-04-18T11:34:08.704Z,0.9000
2024-04-18T11:35:15.721Z,0.8917
2024-04-18T11:36:11.917Z,0.8667
2024-04-18T11:37:12.857Z,0.8462
2024-04-18T11:38:14.250Z,0.7538
2024-04-18T11:39:17.843Z,0.8462
2024-04-18T11:40:16.943Z,0.7923
2024-04-18T11:41:22.309Z,0.8077
2024-04-18T11:42:24.266Z,0.8417
2024-04-18T11:43:24.264Z,0.9250
2024-04-18T11:46:00.914Z,0.8000
2024-04-18T11:47:12.796Z,0.8667
2024-04-18T11:48:02.907Z,0.8800
2024-04-18T11:49:11.303Z,0.7923
2024-04-18T11:50:16.362Z,0.9000
2024-04-18T11:51:07.243Z,0.8091
2024-04-18T11:52:06.969Z,0.8333
2024-04-18T11:53:31.743Z,0.8692
2024-04-18T11:54:12.871Z,0.7222
2024-04-18T11:55:21.738Z,0.8462
2024-04-18T11:56:15.788Z,0.8700
2024-04-18T11:57:16.243Z,0.8077
2024-04-18T11:58:22.746Z,0.8154
2024-04-18T11:59:17.776Z,0.8091
2024-04-18T12:02:18.324Z,0.7000
2024-04-18T12:03:20.911Z,0.7727
2024-04-18T12:04:16.997Z,0.7636
2024-04-18T12:05:17.628Z,0.8769
2024-04-18T12:06:29.800Z,0.8000
2024-04-18T12:07:30.268Z,0.8727
2024-04-18T12:08:23.311Z,0.8000
2024-04-18T12:09:26.794Z,0.8692
2024-04-18T12:10:25.239Z,0.9083
2024-04-18T12:11:33.830Z,0.9462
2024-04-18T12:12:30.269Z,0.8417
2024-04-18T12:13:32.287Z,0.7500
2024-04-18T12:14:52.708Z,0.9167
2024-04-18T12:17:09.268Z,0.8000
2024-04-18T12:18:10.762Z,0.8000
2024-04-18T12:20:14.845Z,0.8769
2024-04-18T12:20:31.292Z,0.8000
2024-04-18T12:21:29.259Z,0.8083
2024-04-18T12:22:27.721Z,0.8909
2024-04-18T12:24:19.337Z,0.9000
2024-04-18T12:24:33.898Z,0.8000
2024-04-18T12:25:31.873Z,0.8273
2024-04-18T12:26:39.805Z,0.8000
2024-04-18T12:27:41.752Z,0.9333
2024-04-18T12:29:01.363Z,0.8909
2024-04-18T12:29:42.811Z,0.9000
2024-04-18T12:32:35.323Z,1.0000
2024-04-18T12:33:33.399Z,0.8833
2024-04-18T12:34:46.827Z,0.8615
2024-04-18T12:35:38.276Z,0.8400
2024-04-18T12:36:41.943Z,0.8583
2024-04-18T12:37:38.225Z,0.8923
2024-04-18T12:38:41.346Z,0.7692
2024-04-18T12:39:41.374Z,0.8000
2024-04-18T12:40:42.760Z,0.8154
2024-04-18T12:41:45.968Z,0.7769
2024-04-18T12:42:53.810Z,0.8538
2024-04-18T12:43:47.441Z,0.7833
2024-04-18T12:44:51.316Z,0.9077
2024-04-18T12:47:23.574Z,0.8000
2024-04-18T12:48:56.585Z,0.8692
2024-04-18T12:49:42.844Z,0.8714
2024-04-18T12:50:30.372Z,0.9200
2024-04-18T12:51:40.367Z,0.8385
2024-04-18T12:52:39.271Z,0.8167
2024-04-18T12:53:41.777Z,0.8364
2024-04-18T12:54:44.382Z,0.8273
2024-04-18T12:55:40.737Z,0.8545
2024-04-18T12:56:44.296Z,0.8750
2024-04-18T12:57:51.751Z,0.8615
2024-04-18T12:58:53.849Z,0.8000
2024-04-18T12:59:47.768Z,0.9000
2024-04-18T13:01:13.405Z,0.8417
2024-04-18T13:03:42.423Z,0.7000
2024-04-18T13:04:31.433Z,0.9222
2024-04-18T13:05:26.764Z,0.8455
2024-04-18T13:06:27.826Z,0.7750
2024-04-18T13:07:36.255Z,0.8250
2024-04-18T13:08:35.878Z,0.8750
2024-04-18T13:09:43.270Z,0.8455
2024-04-18T13:10:36.302Z,0.7818
2024-04-18T13:11:37.234Z,0.8833
2024-04-18T13:12:42.264Z,0.8583
2024-04-18T13:13:37.778Z,0.8727
2024-04-18T13:14:43.721Z,0.8750
2024-04-18T13:15:39.759Z,0.8182
2024-04-18T13:16:41.842Z,0.9154